Vananda, Canada
Current Conditions -  °F | °C
As of 7:00 PM on Wednesday 26 Nov 2014 (Local Time) from CYPW Reporting Station
Light Rain Light Rain  
Wind Chill: 52°   Ceiling: 1500
Heat Index: 52°   Visibility: 8mi
Dew Point: 50°   Wind: 14mph
Humidity: 94%   Direction: 100°E
Pressure: 29.76"   Gusts: 21mph
Location:  49.76°N, 124.55°W
Report Text: CYPW 270300Z 10012G18KT 8SM -RA FEW004 SCT008 BKN015 OVC040 11/10 A2976 RMK SF1SF2SC2SC3 LAST OBS/NEXT 271500 UTC SLP081
Loading
Personal Weather Stations






























Interactive Weather Map New forecast layout! Learn more

10-Day Weather Forecast

Advertisements
Track Severe Weather on mobile